createdAt,value
2022-08-05T00:03:58.201Z,45.93
2022-08-05T00:09:20.325Z,46.05
2022-08-05T00:15:40.751Z,46.05
2022-08-05T00:20:54.466Z,46.30
2022-08-05T00:26:25.033Z,46.37
2022-08-05T00:32:13.086Z,46.42
2022-08-05T00:37:35.870Z,46.52
2022-08-05T00:43:15.382Z,46.75
2022-08-05T00:48:51.217Z,46.71
2022-08-05T00:54:14.870Z,46.93
2022-08-05T00:59:34.607Z,47.00
2022-08-05T01:05:05.087Z,47.18
2022-08-05T01:10:32.645Z,47.25
2022-08-05T01:15:58.142Z,47.34
2022-08-05T01:22:10.850Z,47.41
2022-08-05T01:28:00.445Z,47.52
2022-08-05T01:33:20.704Z,47.73
2022-08-05T01:38:50.880Z,47.71
2022-08-05T01:44:00.241Z,47.87
2022-08-05T01:50:00.572Z,48.04
2022-08-05T01:55:22.164Z,48.23
2022-08-05T02:00:36.668Z,48.48
2022-08-05T02:05:59.737Z,48.63
2022-08-05T02:11:34.904Z,48.76
2022-08-05T02:16:56.347Z,48.95
2022-08-05T02:22:26.462Z,49.29
2022-08-05T02:27:59.574Z,49.34
2022-08-05T02:33:12.841Z,49.47
2022-08-05T02:38:54.397Z,49.57
2022-08-05T02:44:13.203Z,49.89
2022-08-05T02:49:36.689Z,50.34
2022-08-05T02:54:57.308Z,50.30
2022-08-05T03:00:05.856Z,50.59
2022-08-05T03:05:15.428Z,50.66
2022-08-05T03:10:37.490Z,51.04
2022-08-05T03:15:49.280Z,51.13
2022-08-05T03:21:15.938Z,51.39
2022-08-05T03:26:45.675Z,51.52
2022-08-05T03:32:16.672Z,51.76
2022-08-05T03:37:41.009Z,51.98
2022-08-05T03:43:58.307Z,52.24
2022-08-05T03:49:02.377Z,52.34
2022-08-05T03:55:50.221Z,52.45
2022-08-05T04:00:16.587Z,52.40
2022-08-05T04:05:27.861Z,52.65
2022-08-05T04:10:45.530Z,52.71
2022-08-05T04:16:15.661Z,52.82
2022-08-05T04:22:09.624Z,52.66
2022-08-05T04:27:19.101Z,52.47
2022-08-05T04:32:31.261Z,52.10
2022-08-05T04:38:02.710Z,51.86
2022-08-05T04:43:16.679Z,51.62
2022-08-05T04:48:29.032Z,51.27
2022-08-05T04:53:39.081Z,51.05
2022-08-05T04:58:46.481Z,50.81
2022-08-05T05:03:59.238Z,50.58
2022-08-05T05:09:23.759Z,50.27
2022-08-05T05:14:32.288Z,50.34
2022-08-05T05:19:47.444Z,50.17
2022-08-05T05:25:16.887Z,49.79
2022-08-05T05:30:29.882Z,49.60
2022-08-05T05:35:47.569Z,49.41
2022-08-05T05:40:55.174Z,49.22
2022-08-05T05:46:06.893Z,48.92
2022-08-05T05:51:28.059Z,48.34
2022-08-05T05:56:50.154Z,48.41
2022-08-05T06:02:01.295Z,48.14
2022-08-05T06:07:22.443Z,47.95
2022-08-05T06:12:35.124Z,47.36
2022-08-05T06:17:52.752Z,46.95
2022-08-05T06:23:05.600Z,46.72
2022-08-05T06:28:21.427Z,46.67
2022-08-05T06:34:00.476Z,46.16
2022-08-05T06:38:59.757Z,45.82
2022-08-05T06:44:07.569Z,45.42
2022-08-05T06:49:17.069Z,44.69
2022-08-05T06:54:26.309Z,44.30
2022-08-05T06:59:42.202Z,43.71
2022-08-05T07:04:53.567Z,43.03
2022-08-05T07:10:05.840Z,42.03
2022-08-05T07:16:00.796Z,41.75
2022-08-05T07:21:05.408Z,41.14
2022-08-05T07:26:14.030Z,40.73
2022-08-05T07:31:41.039Z,39.92
2022-08-05T07:36:56.338Z,39.86
2022-08-05T07:42:12.865Z,39.24
2022-08-05T07:47:25.851Z,38.85
2022-08-05T07:52:33.862Z,38.08
2022-08-05T07:57:58.908Z,38.19
2022-08-05T08:03:13.932Z,37.63
2022-08-05T08:08:23.524Z,37.46
2022-08-05T08:13:42.970Z,36.93
2022-08-05T08:18:57.376Z,36.51
2022-08-05T08:24:09.503Z,36.27
2022-08-05T08:30:03.922Z,36.08
2022-08-05T08:34:54.981Z,35.69
2022-08-05T08:40:05.272Z,35.70
2022-08-05T08:45:19.602Z,35.73
2022-08-05T08:51:03.870Z,35.55
2022-08-05T08:56:06.211Z,35.55
2022-08-05T09:01:23.114Z,35.51
2022-08-05T09:06:36.273Z,35.59
2022-08-05T09:11:52.205Z,35.53
2022-08-05T09:17:01.432Z,35.47
2022-08-05T09:22:22.079Z,35.39
2022-08-05T09:28:04.272Z,35.37
2022-08-05T09:33:07.852Z,35.17
2022-08-05T09:38:17.953Z,35.15
2022-08-05T09:43:41.239Z,34.85
2022-08-05T09:49:06.754Z,34.68
2022-08-05T09:54:35.655Z,34.56
2022-08-05T09:59:50.506Z,34.26
2022-08-05T10:05:10.042Z,34.21
2022-08-05T10:10:19.180Z,34.21
2022-08-05T10:15:47.336Z,34.34
2022-08-05T10:20:57.131Z,34.21
2022-08-05T10:26:07.475Z,33.91
2022-08-05T10:32:54.430Z,33.77
2022-08-05T10:36:50.170Z,33.81
2022-08-05T10:42:04.404Z,33.84
2022-08-05T10:47:27.113Z,33.62
2022-08-05T10:52:49.548Z,33.70
2022-08-05T10:58:11.947Z,33.69
2022-08-05T11:03:27.528Z,33.17
2022-08-05T11:09:02.266Z,33.33
2022-08-05T11:14:14.443Z,33.50
2022-08-05T11:20:17.105Z,33.43
2022-08-05T11:26:04.418Z,33.35
2022-08-05T11:31:57.341Z,32.90
2022-08-05T11:36:56.368Z,33.07
2022-08-05T11:42:08.294Z,32.85
2022-08-05T11:47:21.773Z,32.79
2022-08-05T11:52:31.229Z,32.82
2022-08-05T11:58:08.156Z,32.50
2022-08-05T12:03:28.625Z,32.56
2022-08-05T12:08:51.327Z,32.22
2022-08-05T12:14:13.749Z,32.15
2022-08-05T12:20:26.796Z,32.21
2022-08-05T12:24:53.209Z,31.90
2022-08-05T12:30:05.476Z,31.94
2022-08-05T12:35:37.186Z,32.06
2022-08-05T12:40:47.361Z,31.97
2022-08-05T12:46:08.125Z,31.72
2022-08-05T12:52:09.989Z,31.72
2022-08-05T12:56:52.554Z,31.75
2022-08-05T13:02:07.023Z,31.50
2022-08-05T13:07:30.970Z,31.34
2022-08-05T13:12:58.945Z,31.26
2022-08-05T13:18:06.713Z,31.11
2022-08-05T13:23:22.609Z,31.12
2022-08-05T13:28:44.154Z,30.99
2022-08-05T13:34:21.751Z,31.03
2022-08-05T13:39:24.613Z,31.10
2022-08-05T13:44:54.113Z,30.93
2022-08-05T13:50:06.786Z,30.68
2022-08-05T13:55:41.926Z,30.69
2022-08-05T14:00:46.546Z,30.84
2022-08-05T14:06:26.439Z,30.96
2022-08-05T14:11:32.434Z,30.91
2022-08-05T14:17:03.206Z,30.92
2022-08-05T14:22:12.179Z,31.00
2022-08-05T14:27:19.913Z,30.89
2022-08-05T14:32:32.299Z,31.01
2022-08-05T14:37:47.358Z,30.78
2022-08-05T14:42:57.592Z,30.92
2022-08-05T14:48:32.357Z,30.89
2022-08-05T14:54:28.176Z,30.88
2022-08-05T14:59:47.814Z,30.74
2022-08-05T15:05:01.135Z,30.85
2022-08-05T15:10:16.367Z,30.83
2022-08-05T15:15:55.984Z,30.89
2022-08-05T15:20:54.788Z,30.96
2022-08-05T15:26:31.964Z,30.75
2022-08-05T15:31:39.896Z,30.78
2022-08-05T15:36:58.895Z,30.95
2022-08-05T15:42:55.148Z,30.81
2022-08-05T15:47:40.567Z,30.98
2022-08-05T15:52:52.902Z,31.04
2022-08-05T15:58:05.423Z,30.73
2022-08-05T16:03:19.815Z,30.98
2022-08-05T16:08:31.027Z,30.99
2022-08-05T16:13:38.648Z,31.09
2022-08-05T16:18:52.576Z,31.06
2022-08-05T16:24:03.298Z,31.30
2022-08-05T16:29:20.125Z,31.22
2022-08-05T16:34:29.995Z,31.38
2022-08-05T16:40:04.818Z,31.30
2022-08-05T16:46:04.580Z,31.37
2022-08-05T16:50:50.420Z,31.39
2022-08-05T16:55:58.518Z,31.47
2022-08-05T17:01:06.617Z,31.61
2022-08-05T17:06:19.123Z,31.74
2022-08-05T17:11:26.818Z,31.73
2022-08-05T17:16:39.445Z,31.80
2022-08-05T17:21:57.044Z,32.17
2022-08-05T17:27:22.965Z,32.12
2022-08-05T17:32:34.777Z,32.38
2022-08-05T17:37:45.561Z,32.42
2022-08-05T17:42:56.251Z,32.41
2022-08-05T17:48:28.615Z,32.55
2022-08-05T17:53:36.235Z,32.74
2022-08-05T17:58:47.017Z,32.80
2022-08-05T18:03:59.101Z,33.02
2022-08-05T18:09:16.174Z,33.30
2022-08-05T18:14:31.511Z,33.64
2022-08-05T18:20:00.291Z,34.28
2022-08-05T18:25:10.130Z,34.69
2022-08-05T18:30:24.515Z,35.40
2022-08-05T18:36:00.911Z,36.26
2022-08-05T18:41:58.285Z,36.93
2022-08-05T18:46:49.513Z,37.68
2022-08-05T18:52:25.471Z,38.18
2022-08-05T18:58:03.408Z,38.88
2022-08-05T19:03:53.004Z,39.33
2022-08-05T19:09:01.466Z,40.07
2022-08-05T19:14:52.325Z,40.82
2022-08-05T19:19:39.031Z,42.00
2022-08-05T19:24:56.324Z,42.75
2022-08-05T19:30:21.472Z,43.54
2022-08-05T19:35:55.938Z,44.25
2022-08-05T19:41:58.557Z,44.76
2022-08-05T19:47:49.341Z,45.43
2022-08-05T19:54:03.364Z,46.02
2022-08-05T20:00:00.590Z,46.99
2022-08-05T20:05:51.464Z,47.56
2022-08-05T20:18:45.759Z,49.55
2022-08-05T20:24:22.154Z,50.37
2022-08-05T20:30:15.193Z,51.11
2022-08-05T20:35:49.401Z,51.59
2022-08-05T20:41:23.725Z,52.05
2022-08-05T20:46:57.460Z,52.54
2022-08-05T20:52:31.304Z,52.86
2022-08-05T20:58:02.369Z,53.30
2022-08-05T21:03:29.313Z,53.60
2022-08-05T21:09:10.074Z,53.92
2022-08-05T21:14:45.609Z,54.37
2022-08-05T21:20:32.791Z,54.83
2022-08-05T21:25:58.695Z,55.21
2022-08-05T21:31:21.804Z,55.62
2022-08-05T21:36:51.861Z,56.35
2022-08-05T21:42:31.017Z,56.90
2022-08-05T21:48:11.570Z,57.44
2022-08-05T21:53:42.884Z,57.94
2022-08-05T21:59:24.039Z,58.24
2022-08-05T22:04:48.852Z,58.32
2022-08-05T22:10:26.643Z,58.62
2022-08-05T22:16:00.412Z,58.65
2022-08-05T22:21:36.487Z,59.14
2022-08-05T22:27:19.551Z,59.26
2022-08-05T22:32:41.605Z,59.30
2022-08-05T22:38:34.113Z,59.67
2022-08-05T22:43:57.119Z,59.92
2022-08-05T22:50:17.368Z,60.18
2022-08-05T22:55:00.754Z,60.53
2022-08-05T23:00:27.420Z,60.92
2022-08-05T23:05:56.562Z,61.24
2022-08-05T23:11:49.246Z,61.48
2022-08-05T23:17:34.937Z,61.76
2022-08-05T23:22:56.082Z,62.00
2022-08-05T23:28:29.505Z,62.32
2022-08-05T23:34:04.124Z,62.49
2022-08-05T23:39:53.854Z,62.82
2022-08-05T23:45:23.799Z,62.64
2022-08-05T23:50:52.310Z,63.25
2022-08-05T23:56:13.199Z,63.20
